Time;durP1;ratioP1;P1;durP2;ratioP2;P2;SDS_P1;SDS_P2;PMS_P1;PMS_P2;Temp;Humidity;BMP_temperature;BMP_pressure;BME280_temperature;BME280_humidity;BME280_pressure;Samples;Min_cycle;Max_cycle;Signal;HPM_P1;HPM_P2
2022/11/01 00:00:28;;;;;;;1.71;1.00;;;;;;;4.29;55.10;101034.32;461592;115;922574;-76
2022/11/01 00:01:31;;;;;;;1.11;1.07;;;;;;;4.29;55.09;101036.17;461680;115;922481;-76
2022/11/01 00:02:35;;;;;;;1.26;0.86;;;;;;;4.28;55.12;101032.63;454738;114;923036;-75
2022/11/01 00:03:38;;;;;;;1.16;1.04;;;;;;;4.28;55.06;101031.78;454614;116;922576;-76
2022/11/01 00:04:41;;;;;;;1.33;0.98;;;;;;;4.26;55.00;101033.78;454743;116;922493;-77
2022/11/01 00:05:45;;;;;;;1.57;1.17;;;;;;;4.24;55.00;101030.42;454706;116;922534;-76
2022/11/01 00:06:48;;;;;;;1.19;1.08;;;;;;;4.20;55.00;101029.87;454688;116;922587;-76
2022/11/01 00:07:52;;;;;;;1.26;0.96;;;;;;;4.19;55.03;101030.88;454603;116;930182;-77
2022/11/01 00:08:56;;;;;;;1.23;1.11;;;;;;;4.17;55.09;101032.92;454653;116;922552;-77
2022/11/01 00:09:59;;;;;;;2.16;1.26;;;;;;;4.15;55.04;101029.52;454709;116;922531;-77
2022/11/01 00:11:04;;;;;;;3.20;1.59;;;;;;;4.14;55.15;101030.52;454668;116;922801;-76
2022/11/01 00:12:07;;;;;;;0.98;0.88;;;;;;;4.13;55.08;101031.56;454506;116;922913;-76
2022/11/01 00:13:10;;;;;;;3.00;1.09;;;;;;;4.11;55.19;101041.66;454700;116;922479;-77
2022/11/01 00:14:14;;;;;;;2.31;0.98;;;;;;;4.10;55.19;101029.17;454660;116;922568;-77
2022/11/01 00:15:17;;;;;;;1.35;1.01;;;;;;;4.08;55.22;101034.72;454604;116;922537;-77
2022/11/01 00:16:21;;;;;;;1.32;1.17;;;;;;;4.05;55.35;101035.05;450973;116;923177;-76
2022/11/01 00:17:24;;;;;;;1.11;0.83;;;;;;;4.00;55.43;101026.60;446520;118;922510;-77
2022/11/01 00:18:27;;;;;;;1.27;1.08;;;;;;;4.00;55.43;101026.60;446562;118;930162;-76
2022/11/01 00:19:30;;;;;;;1.27;0.88;;;;;;;3.99;55.45;101021.36;446644;119;922864;-77
2022/11/01 00:20:33;;;;;;;1.24;0.79;;;;;;;3.98;55.59;101025.06;446633;118;922545;-75
2022/11/01 00:21:36;;;;;;;1.04;0.89;;;;;;;3.98;55.79;101019.66;446623;118;922876;-76
2022/11/01 00:22:39;;;;;;;1.94;1.29;;;;;;;4.00;55.73;101029.30;446647;118;922663;-76
2022/11/01 00:23:43;;;;;;;1.82;1.00;;;;;;;4.00;55.81;101029.30;446612;118;923083;-77
2022/11/01 00:24:50;;;;;;;1.04;0.79;;;;;;;4.00;55.89;101023.91;446605;119;922998;-76
2022/11/01 00:25:59;;;;;;;1.17;1.05;;;;;;;4.01;55.92;101024.75;446203;118;930173;-77
2022/11/01 00:27:02;;;;;;;1.48;0.98;;;;;;;4.01;55.92;101024.75;446449;119;922478;-76
2022/11/01 00:28:05;;;;;;;1.76;1.24;;;;;;;4.01;55.92;101028.30;446641;118;922894;-75
2022/11/01 00:29:08;;;;;;;1.36;1.13;;;;;;;4.01;56.02;101027.45;446625;119;923181;-75
2022/11/01 00:30:12;;;;;;;1.33;1.23;;;;;;;4.00;56.02;101023.06;450966;116;922990;-76
2022/11/01 00:31:16;;;;;;;1.17;1.00;;;;;;;3.99;56.03;101022.20;454349;116;922873;-76
2022/11/01 00:32:19;;;;;;;1.16;1.05;;;;;;;3.98;56.15;101025.91;454469;116;922462;-77
2022/11/01 00:33:23;;;;;;;1.14;0.96;;;;;;;3.98;56.15;101025.91;454698;116;930118;-76
2022/11/01 00:34:26;;;;;;;1.62;0.96;;;;;;;3.99;56.21;101027.61;448000;114;922564;-74
2022/11/01 00:35:30;;;;;;;1.71;1.06;;;;;;;3.98;56.21;101027.75;447010;118;930661;-77
2022/11/01 00:36:34;;;;;;;1.05;0.97;;;;;;;3.96;56.23;101033.34;446854;118;923078;-77
2022/11/01 00:37:37;;;;;;;1.21;1.11;;;;;;;3.97;56.32;101044.98;446947;118;922394;-76
2022/11/01 00:38:42;;;;;;;1.15;1.03;;;;;;;3.96;56.25;101035.19;446914;116;922906;-76
2022/11/01 00:39:44;;;;;;;1.29;1.01;;;;;;;3.95;56.34;101036.19;447013;118;930179;-76
2022/11/01 00:40:47;;;;;;;2.05;0.97;;;;;;;3.94;56.28;101035.34;447064;118;923168;-76
2022/11/01 00:41:50;;;;;;;1.17;1.04;;;;;;;3.93;56.30;101033.64;447082;118;922560;-76
2022/11/01 00:42:55;;;;;;;1.48;1.22;;;;;;;3.93;56.29;101030.95;447010;118;923388;-76
2022/11/01 00:43:58;;;;;;;1.33;1.09;;;;;;;3.93;56.30;101032.80;447087;117;922582;-76
2022/11/01 00:45:01;;;;;;;1.43;0.94;;;;;;;3.92;56.40;101028.39;447071;118;922447;-76
2022/11/01 00:46:04;;;;;;;2.72;1.41;;;;;;;3.91;56.44;101029.44;447075;118;922758;-77
2022/11/01 00:47:07;;;;;;;1.14;1.07;;;;;;;3.91;56.57;101034.83;440820;120;922963;-76
2022/11/01 00:48:11;;;;;;;2.51;1.27;;;;;;;3.92;56.56;101025.70;441025;118;922750;-77
2022/11/01 00:49:14;;;;;;;0.96;0.82;;;;;;;3.92;56.61;101037.34;446962;116;923149;-76
2022/11/01 00:50:17;;;;;;;2.77;1.14;;;;;;;3.92;56.65;101031.95;448460;116;923203;-75
2022/11/01 00:51:20;;;;;;;2.09;1.39;;;;;;;3.92;56.55;101033.80;454710;116;922879;-76
2022/11/01 00:52:23;;;;;;;1.81;1.19;;;;;;;3.92;56.57;101031.95;454724;116;923004;-76
2022/11/01 00:53:26;;;;;;;4.04;1.50;;;;;;;3.91;56.57;101029.44;454720;116;922596;-75
2022/11/01 00:54:29;;;;;;;2.01;1.48;;;;;;;3.91;56.63;101037.52;454720;114;922534;-76
2022/11/01 00:55:33;;;;;;;1.74;1.16;;;;;;;3.89;56.67;101037.67;454751;116;923439;-77
2022/11/01 00:56:36;;;;;;;1.41;1.31;;;;;;;3.86;56.66;101035.28;454683;116;922522;-77
2022/11/01 00:57:39;;;;;;;3.01;1.37;;;;;;;3.86;56.66;101035.28;454673;116;930174;-78
2022/11/01 00:58:42;;;;;;;2.68;1.89;;;;;;;3.85;56.62;101030.92;454720;114;922927;-77
2022/11/01 00:59:45;;;;;;;1.57;1.30;;;;;;;3.83;56.71;101026.67;454831;116;922538;-76
2022/11/01 01:00:48;;;;;;;2.05;1.61;;;;;;;3.80;56.71;101030.55;454723;116;922440;-78
2022/11/01 01:01:51;;;;;;;1.79;1.25;;;;;;;3.78;56.83;101024.47;454737;116;922683;-77
2022/11/01 01:02:54;;;;;;;1.64;1.45;;;;;;;3.77;56.89;101029.01;457209;115;922508;-77
2022/11/01 01:03:57;;;;;;;2.02;1.51;;;;;;;3.76;56.95;101019.22;457538;114;922554;-77
2022/11/01 01:05:00;;;;;;;1.96;1.41;;;;;;;3.75;56.96;101022.92;457530;116;922536;-77
2022/11/01 01:06:04;;;;;;;1.96;1.39;;;;;;;3.73;57.02;101014.16;457535;115;922595;-78
2022/11/01 01:07:07;;;;;;;1.80;1.37;;;;;;;3.73;57.12;101022.25;457574;115;922476;-76
2022/11/01 01:08:10;;;;;;;1.92;1.58;;;;;;;3.73;57.13;101021.41;457480;116;922888;-76
2022/11/01 01:09:12;;;;;;;1.99;1.58;;;;;;;3.72;57.24;101019.70;457516;114;922586;-77
2022/11/01 01:10:16;;;;;;;2.24;1.26;;;;;;;3.74;57.34;101020.41;457452;115;922609;-75
2022/11/01 01:11:19;;;;;;;1.38;1.20;;;;;;;3.73;57.43;101019.55;457466;115;930341;-79
2022/11/01 01:12:22;;;;;;;1.59;1.24;;;;;;;3.75;57.46;101022.07;457484;116;923026;-76
2022/11/01 01:13:26;;;;;;;1.58;1.16;;;;;;;3.74;57.54;101023.95;457467;115;922503;-76
2022/11/01 01:14:28;;;;;;;1.61;1.28;;;;;;;3.74;57.53;101034.73;457438;115;928985;-77
2022/11/01 01:15:33;;;;;;;1.61;1.23;;;;;;;3.74;57.67;101026.64;457264;115;923047;-77
2022/11/01 01:16:36;;;;;;;1.64;1.19;;;;;;;3.75;57.67;101035.55;457512;115;922698;-76
2022/11/01 01:17:39;;;;;;;1.79;1.27;;;;;;;3.74;57.61;101032.04;457504;116;922592;-77
2022/11/01 01:18:42;;;;;;;1.89;1.22;;;;;;;3.74;57.63;101026.64;457515;116;922687;-76
2022/11/01 01:19:45;;;;;;;2.83;1.42;;;;;;;3.74;57.74;101034.73;457518;116;922552;-76
2022/11/01 01:20:48;;;;;;;2.11;1.71;;;;;;;3.74;57.78;101034.73;457469;116;922738;-76
2022/11/01 01:21:51;;;;;;;1.75;1.35;;;;;;;3.74;57.74;101029.34;457470;116;922584;-76
2022/11/01 01:22:54;;;;;;;1.30;1.01;;;;;;;3.74;57.83;101026.64;457511;116;922511;-76
2022/11/01 01:23:57;;;;;;;1.96;1.15;;;;;;;3.74;57.76;101023.10;457364;116;922643;-77
2022/11/01 01:25:00;;;;;;;1.57;1.37;;;;;;;3.73;57.75;101027.64;457495;116;922836;-76
2022/11/01 01:26:08;;;;;;;2.10;1.29;;;;;;;3.73;57.81;101027.64;457521;116;922824;-77
2022/11/01 01:27:13;;;;;;;2.44;1.47;;;;;;;3.73;57.87;101030.34;448840;118;922668;-76
2022/11/01 01:28:16;;;;;;;1.19;0.89;;;;;;;3.72;57.91;101022.41;449422;116;922670;-77
2022/11/01 01:29:19;;;;;;;1.93;1.10;;;;;;;3.72;57.97;101025.95;457491;114;922598;-76
2022/11/01 01:30:22;;;;;;;1.36;1.13;;;;;;;3.71;57.93;101020.70;456095;115;922849;-77
2022/11/01 01:31:26;;;;;;;1.59;1.27;;;;;;;3.72;57.98;101030.49;455709;116;922615;-76
2022/11/01 01:32:28;;;;;;;1.91;1.18;;;;;;;3.71;58.06;101024.25;457216;116;923451;-76
2022/11/01 01:33:32;;;;;;;1.02;0.94;;;;;;;3.70;58.08;101025.25;457575;115;922549;-76
2022/11/01 01:34:34;;;;;;;1.28;1.02;;;;;;;3.68;58.05;101024.59;449728;116;922917;-79
2022/11/01 01:35:38;;;;;;;1.07;0.89;;;;;;;3.67;58.19;101028.28;449792;118;922574;-76
2022/11/01 01:36:41;;;;;;;1.60;1.07;;;;;;;3.66;58.13;101025.73;449726;117;922567;-76
2022/11/01 01:37:44;;;;;;;1.27;1.08;;;;;;;3.64;58.19;101025.04;449737;117;923021;-76
2022/11/01 01:38:49;;;;;;;2.46;1.21;;;;;;;3.62;58.24;101027.06;449663;116;922481;-76
2022/11/01 01:39:52;;;;;;;2.20;1.18;;;;;;;3.60;58.32;101027.22;449552;118;922558;-76
2022/11/01 01:41:54;;;;;;;1.34;0.93;;;;;;;3.59;58.31;101030.91;449678;117;930272;-77
2022/11/01 01:42:16;;;;;;;1.27;1.08;;;;;;;3.60;58.45;101031.77;447710;118;922643;-77
2022/11/01 01:43:19;;;;;;;1.05;0.96;;;;;;;3.60;58.43;101026.37;448808;117;922674;-76
2022/11/01 01:44:51;;;;;;;1.32;1.22;;;;;;;3.59;58.41;101025.52;449736;116;922516;-77
2022/11/01 01:45:54;;;;;;;1.26;1.10;;;;;;;3.59;58.57;101025.52;449549;118;922654;-76
2022/11/01 01:46:57;;;;;;;1.94;1.42;;;;;;;3.58;58.60;101031.09;449730;117;922380;-77
2022/11/01 01:48:05;;;;;;;1.47;1.35;;;;;;;3.56;58.62;101028.55;449808;117;922592;-76
2022/11/01 01:49:08;;;;;;;1.43;1.31;;;;;;;3.55;58.58;101037.63;449534;116;922660;-77
2022/11/01 01:50:20;;;;;;;1.26;0.98;;;;;;;3.55;58.61;101026.00;451049;115;922941;-77
2022/11/01 01:51:27;;;;;;;1.36;1.19;;;;;;;3.55;58.67;101032.24;460292;113;922564;-77
2022/11/01 01:52:33;;;;;;;1.74;1.11;;;;;;;3.53;58.78;101020.77;460265;115;922633;-77
2022/11/01 01:53:42;;;;;;;1.61;1.21;;;;;;;3.52;58.82;101019.09;460312;115;922507;-77
2022/11/01 01:54:46;;;;;;;2.14;1.08;;;;;;;3.53;58.84;101019.94;460321;115;922552;-77
2022/11/01 01:56:02;;;;;;;2.35;1.24;;;;;;;3.53;58.86;101015.37;460408;115;922989;-77
2022/11/01 01:57:05;;;;;;;2.58;1.25;;;;;;;3.54;58.87;101016.22;460297;115;923097;-76
2022/11/01 01:58:11;;;;;;;2.02;1.51;;;;;;;3.54;58.91;101010.83;460459;115;922573;-77
2022/11/01 01:59:14;;;;;;;1.15;1.01;;;;;;;3.54;58.97;101024.30;460291;115;923400;-77
2022/11/01 02:00:18;;;;;;;1.40;1.01;;;;;;;3.53;58.98;101025.34;460394;115;922622;-76
2022/11/01 02:01:21;;;;;;;1.74;1.14;;;;;;;3.53;58.93;101030.73;460312;115;930204;-76
2022/11/01 02:02:25;;;;;;;1.84;1.22;;;;;;;3.51;58.93;101028.18;460317;115;930428;-77
2022/11/01 02:03:33;;;;;;;1.64;1.09;;;;;;;3.50;58.93;101026.48;460474;114;923017;-77
2022/11/01 02:04:43;;;;;;;1.48;1.19;;;;;;;3.48;58.93;101025.78;460244;115;922556;-77
2022/11/01 02:05:53;;;;;;;1.52;1.41;;;;;;;3.48;58.94;101030.33;460260;115;922603;-75
2022/11/01 02:06:57;;;;;;;1.36;1.24;;;;;;;3.45;58.99;101034.20;460515;115;922684;-76
2022/11/01 02:08:01;;;;;;;1.12;1.01;;;;;;;3.44;59.02;101026.27;460256;115;922625;-76
2022/11/01 02:09:07;;;;;;;1.94;1.32;;;;;;;3.42;59.09;101029.11;460235;115;930305;-76
2022/11/01 02:10:13;;;;;;;1.18;1.06;;;;;;;3.41;59.17;101030.14;460214;115;930254;-77
2022/11/01 02:11:17;;;;;;;2.34;1.36;;;;;;;3.42;59.20;101030.98;460242;115;922851;-75
2022/11/01 02:12:24;;;;;;;1.95;1.18;;;;;;;3.43;59.19;101038.89;460371;115;922870;-76
2022/11/01 02:13:28;;;;;;;1.34;1.24;;;;;;;3.44;59.15;101042.44;460272;115;922526;-76
2022/11/01 02:14:31;;;;;;;1.67;1.36;;;;;;;3.43;59.09;101038.05;460267;115;922635;-76
2022/11/01 02:15:38;;;;;;;2.21;1.15;;;;;;;3.40;59.11;101043.77;460479;115;922533;-76
2022/11/01 02:16:50;;;;;;;1.22;1.13;;;;;;;3.38;59.12;101041.22;456153;113;922498;-76
2022/11/01 02:18:12;;;;;;;1.01;0.99;;;;;;;3.36;59.14;101041.36;455069;116;922611;-76
2022/11/01 02:19:55;;;;;;;1.35;1.25;;;;;;;3.34;59.18;101037.16;455141;116;922611;-77
2022/11/01 02:21:10;;;;;;;2.23;1.27;;;;;;;3.32;59.33;101029.22;455127;116;922535;-76
2022/11/01 02:22:36;;;;;;;1.38;1.21;;;;;;;3.30;59.38;101041.17;455011;116;922509;-76
2022/11/01 02:23:55;;;;;;;1.71;1.47;;;;;;;3.28;59.46;101038.62;455087;116;922650;-76
2022/11/01 02:25:27;;;;;;;1.73;1.09;;;;;;;3.24;59.62;101034.56;445975;118;922795;-76
2022/11/01 02:26:52;;;;;;;1.45;1.35;;;;;;;3.21;59.61;101042.94;456330;115;922853;-76
2022/11/01 02:28:19;;;;;;;1.80;1.32;;;;;;;3.20;59.76;101040.39;457302;116;922541;-77
2022/11/01 02:29:58;;;;;;;2.58;1.44;;;;;;;3.19;59.84;101038.72;455770;114;922788;-76
2022/11/01 02:31:19;;;;;;;1.47;1.36;;;;;;;3.16;59.92;101039.87;449582;118;922671;-77
2022/11/01 02:32:42;;;;;;;2.19;1.43;;;;;;;3.13;59.87;101040.19;453259;116;923268;-76
2022/11/01 02:33:52;;;;;;;1.51;1.39;;;;;;;3.11;59.93;101044.03;455753;114;922604;-76
2022/11/01 02:35:22;;;;;;;1.81;1.41;;;;;;;3.04;60.01;101046.48;477067;110;946895;-76
2022/11/01 02:36:50;;;;;;;2.01;1.51;;;;;;;3.04;60.01;101046.48;465405;114;922527;-77
2022/11/01 02:38:08;;;;;;;10.39;1.77;;;;;;;3.00;60.10;101044.27;464894;113;922390;-76
2022/11/01 02:39:18;;;;;;;2.06;1.51;;;;;;;2.97;60.12;101045.44;461609;114;923022;-76
2022/11/01 02:40:30;;;;;;;2.03;1.82;;;;;;;2.94;60.27;101056.50;457731;115;922836;-76
2022/11/01 02:41:37;;;;;;;3.42;1.89;;;;;;;2.92;60.36;101042.36;457121;115;922947;-76
2022/11/01 02:42:43;;;;;;;2.09;1.82;;;;;;;2.90;60.37;101037.13;457230;115;922817;-76
2022/11/01 02:43:49;;;;;;;1.95;1.66;;;;;;;2.89;60.43;101048.89;457358;116;922518;-75
2022/11/01 02:44:56;;;;;;;1.97;1.49;;;;;;;2.88;60.50;101038.27;457371;115;922631;-76
2022/11/01 02:46:59;;;;;;;2.12;1.88;;;;;;;2.88;60.56;101043.66;457331;115;922830;-75
2022/11/01 02:47:09;;;;;;;3.32;1.73;;;;;;;2.88;60.68;101041.80;455121;116;922454;-76
2022/11/01 02:48:11;;;;;;;1.94;1.54;;;;;;;2.88;60.74;101044.50;457400;115;922517;-76
2022/11/01 02:49:18;;;;;;;2.45;2.07;;;;;;;2.87;60.76;101044.64;457554;114;922819;-76
2022/11/01 02:50:24;;;;;;;2.92;1.77;;;;;;;2.87;60.76;101045.49;458513;115;922543;-76
2022/11/01 02:51:29;;;;;;;1.62;1.51;;;;;;;2.85;60.79;101042.12;461577;115;922521;-76
2022/11/01 02:52:34;;;;;;;2.29;1.44;;;;;;;2.85;60.93;101050.20;461609;115;922476;-76
2022/11/01 02:53:37;;;;;;;1.48;1.36;;;;;;;2.85;60.92;101046.67;461593;115;923040;-76
2022/11/01 02:54:46;;;;;;;1.77;1.65;;;;;;;2.84;60.91;101051.20;461715;115;922601;-76
2022/11/01 02:55:53;;;;;;;2.27;1.58;;;;;;;2.84;60.92;101043.13;461571;113;922911;-76
2022/11/01 02:56:59;;;;;;;1.46;1.36;;;;;;;2.84;61.06;101045.81;461613;115;923232;-76
2022/11/01 02:58:24;;;;;;;2.37;1.39;;;;;;;2.85;61.03;101046.67;461607;114;922516;-76
2022/11/01 02:59:28;;;;;;;1.71;1.52;;;;;;;2.85;61.03;101042.12;461583;115;922566;-76
2022/11/01 03:00:34;;;;;;;2.26;1.49;;;;;;;2.85;61.19;101042.12;461687;115;922560;-76
2022/11/01 03:01:41;;;;;;;1.63;1.53;;;;;;;2.85;61.24;101042.12;461604;115;922848;-76
2022/11/01 03:02:44;;;;;;;1.53;1.43;;;;;;;2.87;61.25;101040.11;461593;115;923110;-76
2022/11/01 03:03:50;;;;;;;1.34;1.24;;;;;;;2.88;61.28;101043.66;461676;115;923172;-76
2022/11/01 03:04:52;;;;;;;1.52;1.30;;;;;;;2.89;61.31;101032.73;461564;115;922654;-76
2022/11/01 03:06:08;;;;;;;1.57;1.47;;;;;;;2.91;61.34;101040.67;461842;115;922636;-75
2022/11/01 03:07:12;;;;;;;2.20;1.63;;;;;;;2.93;61.32;101036.80;461788;114;922872;-76
2022/11/01 03:08:19;;;;;;;3.10;1.44;;;;;;;2.96;61.37;101038.36;461623;115;922567;-76
2022/11/01 03:09:22;;;;;;;1.32;1.19;;;;;;;2.98;61.35;101040.91;461474;115;930357;-76
2022/11/01 03:10:34;;;;;;;2.38;1.37;;;;;;;3.00;61.34;101039.73;461763;115;922573;-76
2022/11/01 03:11:56;;;;;;;2.19;1.28;;;;;;;3.03;61.34;101044.83;448877;117;922860;-76
2022/11/01 03:13:17;;;;;;;1.73;1.47;;;;;;;3.04;61.35;101040.25;461233;115;922487;-76
2022/11/01 03:14:33;;;;;;;1.38;1.26;;;;;;;3.06;61.41;101043.66;461550;115;922622;-76
2022/11/01 03:15:39;;;;;;;2.09;1.26;;;;;;;3.07;61.37;101045.34;461570;115;922780;-76
2022/11/01 03:16:52;;;;;;;1.41;1.25;;;;;;;3.08;61.43;101052.44;454897;113;922626;-76
2022/11/01 03:18:04;;;;;;;1.74;1.57;;;;;;;3.09;61.51;101046.87;453574;117;922967;-77
2022/11/01 03:19:36;;;;;;;1.61;1.47;;;;;;;3.12;61.52;101043.03;453473;117;922531;-77
2022/11/01 03:20:49;;;;;;;1.57;1.38;;;;;;;3.14;61.54;101047.25;453758;117;922593;-76
2022/11/01 03:22:04;;;;;;;3.83;3.36;;;;;;;3.17;61.59;101046.95;456998;116;922893;-76
2022/11/01 03:23:09;;;;;;;1.96;1.73;;;;;;;3.20;61.70;101043.08;457129;115;922541;-76
2022/11/01 03:24:15;;;;;;;1.37;1.27;;;;;;;3.21;61.76;101039.39;457371;114;922618;-77
2022/11/01 03:25:41;;;;;;;1.92;1.22;;;;;;;3.23;61.75;101040.95;457354;116;923042;-77
2022/11/01 03:26:48;;;;;;;2.27;1.63;;;;;;;3.26;61.73;101040.62;457293;116;922490;-75
2022/11/01 03:27:53;;;;;;;2.02;1.82;;;;;;;3.27;61.67;101036.92;457196;115;922515;-76
2022/11/01 03:29:02;;;;;;;2.06;1.43;;;;;;;3.27;61.70;101042.31;457296;115;922600;-76
2022/11/01 03:30:09;;;;;;;1.55;1.41;;;;;;;3.30;61.66;101038.47;458523;115;930242;-76
2022/11/01 03:31:21;;;;;;;1.83;1.43;;;;;;;3.32;61.72;101042.69;460188;115;922535;-75
2022/11/01 03:32:28;;;;;;;1.63;1.47;;;;;;;3.35;61.56;101044.23;458016;115;922501;-76
2022/11/01 03:33:34;;;;;;;1.73;1.39;;;;;;;3.36;61.55;101046.75;457177;115;922757;-77
2022/11/01 03:34:39;;;;;;;1.48;1.36;;;;;;;3.38;61.59;101052.00;449116;116;922587;-76
2022/11/01 03:35:46;;;;;;;1.59;1.47;;;;;;;3.39;61.42;101045.61;447862;118;923107;-76
2022/11/01 03:36:52;;;;;;;2.11;1.67;;;;;;;3.40;61.48;101047.31;447834;118;923012;-76
2022/11/01 03:38:06;;;;;;;2.76;1.71;;;;;;;3.52;61.36;101040.66;482476;110;947066;-76
2022/11/01 03:39:12;;;;;;;3.33;1.72;;;;;;;3.42;61.34;101047.16;468672;112;922565;-76
2022/11/01 03:40:17;;;;;;;1.80;1.67;;;;;;;3.43;61.34;101044.28;465380;114;922516;-76
2022/11/01 03:41:24;;;;;;;2.56;2.06;;;;;;;3.44;61.29;101053.22;465408;114;923146;-76
2022/11/01 03:42:27;;;;;;;4.11;1.68;;;;;;;3.45;61.27;101049.52;465268;114;930408;-76
2022/11/01 03:43:32;;;;;;;2.20;1.52;;;;;;;3.46;61.22;101051.22;465547;114;922532;-77
2022/11/01 03:44:41;;;;;;;3.34;2.02;;;;;;;3.46;61.19;101056.61;465302;113;922628;-78
2022/11/01 03:45:45;;;;;;;1.96;1.76;;;;;;;3.46;61.16;101051.22;464239;114;922899;-77
2022/11/01 03:46:50;;;;;;;2.96;1.66;;;;;;;3.46;61.18;101052.08;465445;114;922839;-77
2022/11/01 03:47:53;;;;;;;1.88;1.56;;;;;;;3.46;61.17;101052.08;465455;114;922591;-75
2022/11/01 03:48:56;;;;;;;2.23;1.73;;;;;;;3.48;61.18;101058.13;465532;113;922514;-77
2022/11/01 03:50:17;;;;;;;1.95;1.57;;;;;;;3.49;61.05;101059.83;465584;114;922526;-76
2022/11/01 03:51:20;;;;;;;2.02;1.67;;;;;;;3.49;61.00;101050.89;457342;116;922743;-77
2022/11/01 03:52:23;;;;;;;3.14;1.71;;;;;;;3.48;60.95;101055.44;457476;116;922651;-77
2022/11/01 03:53:26;;;;;;;2.08;1.63;;;;;;;3.46;60.87;101053.92;457493;116;922539;-77
2022/11/01 03:54:29;;;;;;;2.23;1.64;;;;;;;3.45;60.96;101047.68;457424;115;922564;-76
2022/11/01 03:55:32;;;;;;;2.30;2.08;;;;;;;3.44;60.87;101054.06;457534;116;922608;-76
2022/11/01 03:56:39;;;;;;;2.14;1.96;;;;;;;3.45;60.91;101052.22;457492;116;922640;-76
2022/11/01 03:57:41;;;;;;;2.06;1.83;;;;;;;3.44;60.80;101048.67;457243;116;923435;-76
2022/11/01 03:58:45;;;;;;;2.90;1.59;;;;;;;3.43;60.89;101049.67;457477;116;922590;-76
2022/11/01 03:59:47;;;;;;;1.94;1.70;;;;;;;3.42;60.90;101053.37;457370;116;922565;-76
2022/11/01 04:00:50;;;;;;;2.48;1.69;;;;;;;3.43;60.88;101055.06;457415;116;928101;-76
2022/11/01 04:01:54;;;;;;;1.60;1.50;;;;;;;3.42;60.81;101050.67;457439;116;922459;-76
2022/11/01 04:02:57;;;;;;;2.08;1.70;;;;;;;3.43;60.93;101059.61;457443;116;922518;-77
2022/11/01 04:04:01;;;;;;;1.77;1.63;;;;;;;3.42;60.90;101058.76;457407;115;922839;-76
2022/11/01 04:05:04;;;;;;;2.35;1.70;;;;;;;3.44;60.94;101058.61;457478;116;922626;-76
2022/11/01 04:06:08;;;;;;;2.61;1.65;;;;;;;3.43;60.87;101060.45;457322;116;922432;-76
2022/11/01 04:07:11;;;;;;;1.92;1.66;;;;;;;3.45;60.89;101058.46;457424;116;922682;-76
2022/11/01 04:08:14;;;;;;;2.76;1.49;;;;;;;3.45;60.86;101063.00;457518;116;922672;-76
2022/11/01 04:09:17;;;;;;;1.76;1.66;;;;;;;3.45;60.83;101063.85;457496;115;922518;-76
2022/11/01 04:10:22;;;;;;;2.27;1.82;;;;;;;3.45;60.83;101066.55;457535;116;923045;-76
2022/11/01 04:11:25;;;;;;;2.46;1.56;;;;;;;3.45;60.78;101069.24;457328;116;922528;-76
2022/11/01 04:12:28;;;;;;;2.79;2.29;;;;;;;3.44;60.76;101067.55;457474;116;922951;-76
2022/11/01 04:13:31;;;;;;;2.21;1.73;;;;;;;3.43;60.71;101071.23;457509;116;922426;-76
2022/11/01 04:21:25;;;;;;;2.62;1.87;;;;;;;3.36;60.63;101067.50;470327;112;922568;-76
2022/11/01 04:22:28;;;;;;;3.25;1.86;;;;;;;3.32;60.49;101075.03;470323;112;922487;-76
2022/11/01 04:23:31;;;;;;;2.56;2.24;;;;;;;3.29;60.42;101071.81;470568;112;922846;-77
2022/11/01 04:24:34;;;;;;;2.67;2.18;;;;;;;3.26;60.40;101069.41;470429;112;922533;-76
2022/11/01 04:25:37;;;;;;;2.01;1.82;;;;;;;3.22;60.39;101071.58;470431;112;930320;-77
2022/11/01 04:26:40;;;;;;;1.96;1.76;;;;;;;3.20;60.43;101070.87;470491;112;922752;-77
2022/11/01 04:27:43;;;;;;;2.16;1.82;;;;;;;3.18;60.50;101067.52;470506;112;923364;-76
2022/11/01 04:28:56;;;;;;;2.77;1.77;;;;;;;3.17;60.55;101064.97;470503;112;922889;-76
2022/11/01 04:29:59;;;;;;;2.22;1.91;;;;;;;3.16;60.57;101072.20;466743;112;922556;-77
2022/11/01 04:31:03;;;;;;;2.89;2.07;;;;;;;3.14;60.57;101068.80;461319;115;922752;-77
2022/11/01 04:32:06;;;;;;;2.20;1.88;;;;;;;3.12;60.63;101070.83;459582;115;922717;-76
2022/11/01 04:33:09;;;;;;;2.37;2.17;;;;;;;3.13;60.79;101072.52;457516;116;922595;-76
2022/11/01 04:34:12;;;;;;;2.69;1.89;;;;;;;3.13;60.82;101077.06;463117;113;922716;-76
2022/11/01 04:35:15;;;;;;;2.51;1.95;;;;;;;3.11;60.85;101071.82;466685;113;922482;-76
2022/11/01 04:36:18;;;;;;;2.72;1.83;;;;;;;3.12;60.89;101078.05;466704;113;922839;-76
2022/11/01 04:37:21;;;;;;;2.26;2.05;;;;;;;3.14;60.91;101084.97;466683;113;922617;-76
2022/11/01 04:38:24;;;;;;;2.05;1.75;;;;;;;3.12;60.96;101076.22;466736;113;922474;-76
2022/11/01 04:39:27;;;;;;;2.23;2.03;;;;;;;3.14;61.08;101078.77;466687;113;923666;-76
2022/11/01 04:40:31;;;;;;;2.60;2.08;;;;;;;3.14;61.12;101078.77;466693;113;922541;-76
2022/11/01 04:41:34;;;;;;;2.64;2.07;;;;;;;3.15;61.22;101073.20;466615;113;922464;-76
2022/11/01 04:42:37;;;;;;;2.31;2.05;;;;;;;3.16;61.23;101074.89;466675;113;922508;-76
2022/11/01 04:43:40;;;;;;;2.39;2.14;;;;;;;3.18;61.27;101077.44;466694;113;922581;-76
2022/11/01 04:44:45;;;;;;;2.14;1.93;;;;;;;3.19;61.30;101079.14;466651;113;922479;-76
2022/11/01 04:45:56;;;;;;;2.32;2.12;;;;;;;3.20;61.35;101076.27;466482;113;922507;-76
2022/11/01 04:46:59;;;;;;;2.49;2.04;;;;;;;3.22;61.35;101073.43;466467;113;922988;-77
2022/11/01 04:48:05;;;;;;;2.42;2.12;;;;;;;3.22;61.24;101081.52;466597;113;923063;-76
2022/11/01 04:49:08;;;;;;;2.31;2.08;;;;;;;3.20;61.12;101078.97;466290;113;922580;-77
2022/11/01 04:50:12;;;;;;;2.52;2.32;;;;;;;3.19;61.12;101090.77;466436;113;922484;-77
2022/11/01 04:51:15;;;;;;;2.70;2.19;;;;;;;3.17;61.08;101073.90;466454;113;930900;-75
2022/11/01 04:52:17;;;;;;;2.64;2.34;;;;;;;3.15;61.13;101083.12;466519;113;923074;-76
2022/11/01 04:53:21;;;;;;;2.58;2.37;;;;;;;3.14;61.02;101079.58;466463;113;922617;-76
2022/11/01 04:54:24;;;;;;;2.85;2.62;;;;;;;3.12;61.06;101086.98;466444;113;922563;-76
2022/11/01 04:55:27;;;;;;;2.23;2.01;;;;;;;3.12;61.11;101083.45;466496;113;922596;-76
2022/11/01 04:56:30;;;;;;;2.86;2.58;;;;;;;3.11;61.29;101085.29;466447;113;922725;-76
2022/11/01 04:57:41;;;;;;;3.17;2.21;;;;;;;3.12;61.27;101086.98;466387;113;930375;-77
2022/11/01 04:58:44;;;;;;;2.90;2.06;;;;;;;3.12;61.42;101084.30;466284;113;922482;-76
2022/11/01 04:59:52;;;;;;;2.44;2.25;;;;;;;3.13;61.43;101091.38;466300;113;922956;-76
2022/11/01 05:00:55;;;;;;;2.58;2.38;;;;;;;3.16;61.53;101090.21;466193;113;930300;-75
2022/11/01 05:01:58;;;;;;;2.74;2.54;;;;;;;3.18;61.62;101090.91;466473;113;922525;-75
2022/11/01 05:03:06;;;;;;;3.62;2.29;;;;;;;3.19;61.68;101098.00;466438;113;922560;-76
2022/11/01 05:04:09;;;;;;;2.66;2.46;;;;;;;3.21;61.70;101095.98;466209;113;922663;-75
2022/11/01 05:05:13;;;;;;;2.79;2.20;;;;;;;3.22;61.75;101093.14;466467;113;923004;-76
2022/11/01 05:06:16;;;;;;;2.48;2.26;;;;;;;3.25;61.80;101097.39;466431;113;922905;-76
2022/11/01 05:07:19;;;;;;;2.77;2.28;;;;;;;3.27;61.82;101093.52;466427;113;930280;-77
2022/11/01 05:08:22;;;;;;;2.91;2.49;;;;;;;3.29;61.81;101096.91;466427;113;922977;-77
2022/11/01 05:09:25;;;;;;;2.82;2.56;;;;;;;3.31;61.85;101096.73;466481;113;922995;-76
2022/11/01 05:10:28;;;;;;;3.06;2.73;;;;;;;3.31;61.74;101096.73;466485;113;922999;-77
2022/11/01 05:11:30;;;;;;;2.54;2.34;;;;;;;3.33;61.73;101094.75;466510;113;922805;-76
2022/11/01 05:12:34;;;;;;;2.74;2.54;;;;;;;3.34;61.76;101099.14;466509;113;922891;-77
2022/11/01 05:13:36;;;;;;;2.39;2.18;;;;;;;3.35;61.75;101096.30;466341;113;922900;-76
2022/11/01 05:14:39;;;;;;;3.54;2.77;;;;;;;3.36;61.78;101099.84;465444;114;922422;-77